Latest Weather Observations for Bourke

IDN60801

Issued at 9:43 am EST Wednesday 22 September 2021 (issued every 10 minutes, with the page automatically refreshed every 10 minutes)

About weather observations | Map of weather stations | Latest weather observations for NSW | Other Formats
Station Details ID: 048245 Name: BOURKE AIRPORT AWS Lat: -30.04 Lon: 145.95 Height: 107.3 m
Data from the previous 72 hours. | See also: Recent months at Bourke
Date/Time
EST
Temp
°C
App
Temp
°C
Dew
Point
°C
Rel
Hum
%
Delta-T
°C
Wind Press
QNH
hPa
Press
MSL
hPa
Rain since
9am
mm
Dir  Spd
km/h
Gust
km/h
Spd
kts
Gust
kts
22/09:30am 15.7 10.0 -0.5 33 6.8 S 19 28 10 15 1028.1 1028.0 0.0
22/09:00am 14.4 9.1 -0.5 36 6.2 S 17 24 9 13 1028.2 1028.1 0.0
22/08:30am 13.4 8.0 -1.0 37 5.9 S 17 20 9 11 1028.1 1028.0 0.0
22/08:00am 12.1 7.2 -0.7 41 5.2 S 15 19 8 10 1028.0 1027.9 0.0
22/07:30am 10.2 6.3 -1.2 45 4.5 SSW 9 13 5 7 1027.8 1027.7 0.0
22/07:00am 7.4 4.1 -1.5 53 3.3 WSW 6 7 3 4 1027.6 1027.5 0.0
22/06:30am 4.0 0.4 -3.3 59 2.5 SSW 6 7 3 4 1027.3 1027.2 0.0
22/06:00am 3.7 -0.1 -3.6 59 2.5 SW 7 9 4 5 1027.0 1026.9 0.0
22/05:30am 3.1 -0.7 -4.1 59 2.4 WSW 7 11 4 6 1026.8 1026.7 0.0
22/05:00am 2.9 -1.0 -5.0 56 2.6 WSW 7 7 4 4 1026.4 1026.2 0.0
22/04:30am 3.4 0.5 -4.3 57 2.6 WSW 2 7 1 4 1026.4 1026.2 0.0
22/04:00am 4.1 0.4 -4.9 52 3.0 W 6 7 3 4 1026.2 1026.0 0.0
22/03:30am 6.1 2.4 -2.7 53 3.2 SW 7 9 4 5 1026.2 1026.0 0.0
22/03:00am 5.8 2.1 -4.6 47 3.5 SW 6 7 3 4 1026.2 1026.0 0.0
22/02:30am 7.2 3.1 -3.1 48 3.7 WSW 9 11 5 6 1026.3 1026.1 0.0
22/02:00am 7.7 3.6 -3.2 46 3.9 SW 9 11 5 6 1026.5 1026.4 0.0
22/01:30am 8.3 4.1 -4.2 41 4.5 SW 9 13 5 7 1026.8 1026.7 0.0
22/01:00am 10.0 5.1 -3.6 38 5.0 SSW 13 15 7 8 1027.2 1027.1 0.0
22/12:30am 10.8 5.5 -3.7 36 5.4 SSW 15 19 8 10 1027.3 1027.2 0.0
22/12:00am 11.4 5.7 -3.5 35 5.6 SSW 17 20 9 11 1027.3 1027.2 0.0
 
Date/Time
EST
Temp
°C
App
Temp
°C
Dew
Point
°C
Rel
Hum
%
Delta-T
°C
Wind Press
QNH
hPa
Press
MSL
hPa
Rain since
9am
mm
Dir  Spd
km/h
Gust
km/h
Spd
kts
Gust
kts
21/11:30pm 11.1 5.7 -4.1 34 5.6 SSW 15 20 8 11 1027.5 1027.4 0.0
21/11:00pm 11.4 6.1 -3.9 34 5.7 SSW 15 19 8 10 1027.5 1027.4 0.0
21/10:30pm 11.6 6.6 -4.1 33 5.9 SSW 13 19 7 10 1027.4 1027.3 0.0
21/10:00pm 11.3 6.7 -4.0 34 5.7 SSW 11 15 6 8 1027.3 1027.2 0.0
21/09:30pm 11.2 6.6 -4.1 34 5.7 SW 11 15 6 8 1027.0 1026.9 0.0
21/09:00pm 11.7 7.1 -4.0 33 5.8 SW 11 15 6 8 1026.9 1026.8 0.0
21/08:30pm 12.7 8.2 -3.5 32 6.2 SW 11 17 6 9 1026.9 1026.8 0.0
21/08:00pm 13.1 8.5 -4.1 30 6.5 SW 11 13 6 7 1026.6 1026.5 0.0
21/07:30pm 14.3 8.6 -3.9 28 7.0 SSW 17 24 9 13 1026.3 1026.1 0.0
21/07:00pm 14.5 9.1 -4.2 27 7.2 SSW 15 22 8 12 1025.9 1025.7 0.0
21/06:30pm 15.3 8.6 -4.1 26 7.6 SSW 22 30 12 16 1025.4 1025.2 0.0
21/06:00pm 15.9 9.2 -4.1 25 7.8 SSW 22 32 12 17 1025.2 1025.0 0.0
21/05:30pm 16.5 8.6 -4.7 23 8.3 SSW 28 39 15 21 1025.0 1024.8 0.0
21/05:00pm 16.9 9.8 -4.3 23 8.3 SSW 24 37 13 20 1024.8 1024.6 0.0
21/04:30pm 17.3 9.8 -4.6 22 8.6 SSW 26 41 14 22 1024.5 1024.3 0.0
21/04:00pm 17.2 9.3 -4.7 22 8.5 SSW 28 41 15 22 1024.2 1024.0 0.0
21/03:46pm 17.4 9.5 -5.1 21 8.8 S 28 46 15 25 1024.2 1024.0 0.0
21/03:30pm 17.7 9.0 -4.9 21 8.9 SSW 32 44 17 24 1024.0 1023.8 0.0
21/03:00pm 17.1 10.3 -5.4 21 8.6 SSW 22 44 12 24 1024.0 1023.8 0.0
21/02:30pm 17.4 9.1 -5.1 21 8.8 SSW 30 44 16 24 1024.3 1024.1 0.0
21/02:00pm 17.1 9.6 -4.8 22 8.5 SSW 26 48 14 26 1024.4 1024.2 0.0
21/01:54pm 17.1 8.8 -5.4 21 8.7 SSW 30 48 16 26 1024.5 1024.3 0.0
21/01:30pm 16.7 8.0 -5.1 22 8.4 SSW 32 43 17 23 1024.7 1024.5 0.0
21/01:12pm 16.5 8.6 -4.7 23 8.3 SW 28 46 15 25 1024.8 1024.6 0.0
21/01:00pm 16.6 8.7 -5.2 22 8.4 SSW 28 44 15 24 1024.9 1024.7 0.0
21/12:30pm 15.4 7.5 -4.5 25 7.7 SSW 28 46 15 25 1025.1 1024.9 0.0
21/12:24pm 15.7 8.2 -4.8 24 7.9 SSW 26 46 14 25 1025.1 1024.9 0.0
21/12:00pm 15.9 8.6 -3.0 27 7.5 SSW 26 41 14 22 1025.3 1025.1 0.0
21/11:30am 15.2 7.1 -3.2 28 7.3 S 30 44 16 24 1025.7 1025.5 0.0
21/11:00am 14.3 7.0 -2.6 31 6.7 SW 26 37 14 20 1026.0 1025.8 0.0
21/10:30am 13.6 5.2 -2.3 33 6.3 SSW 32 44 17 24 1026.2 1026.0 0.0
21/10:00am 12.6 4.2 -2.8 34 6.0 SSW 32 46 17 25 1026.1 1025.9 0.0
21/09:30am 12.5 5.3 -2.1 36 5.8 SSW 26 41 14 22 1026.0 1025.8 0.0
21/09:00am 11.2 2.8 -2.6 38 5.3 SSW 32 44 17 24 1025.9 1025.7 0.0
21/08:30am 10.9 3.3 -2.5 39 5.2 SSW 28 41 15 22 1025.6 1025.4 0.0
21/08:00am 10.3 1.9 -2.4 41 4.8 SW 32 43 17 23 1025.3 1025.1 0.0
21/07:30am 9.7 1.6 -2.9 41 4.7 SW 30 46 16 25 1024.5 1024.3 0.0
21/07:00am 9.4 1.4 -2.5 43 4.5 SSW 30 44 16 24 1023.9 1023.7 0.0
21/06:30am 9.0 1.8 -2.3 45 4.3 SW 26 35 14 19 1023.0 1022.8 0.0
21/06:00am 9.2 3.2 -1.2 48 4.0 SW 20 30 11 16 1022.5 1022.3 0.0
21/05:30am 9.8 3.5 -1.3 46 4.3 SW 22 30 12 16 1022.1 1021.9 0.0
21/05:00am 10.1 4.9 0.2 50 4.0 SW 17 28 9 15 1021.6 1021.4 0.0
21/04:30am 10.6 5.4 -0.2 47 4.4 SW 17 24 9 13 1021.0 1020.8 0.0
21/04:00am 11.0 4.8 -0.5 45 4.6 SSW 22 30 12 16 1020.7 1020.5 0.0
21/03:30am 11.7 4.7 -0.4 43 4.9 SSW 26 39 14 21 1020.5 1020.3 0.0
21/03:00am 12.4 5.0 -0.5 41 5.3 SSW 28 41 15 22 1020.4 1020.2 0.0
21/02:30am 12.7 5.4 0.1 42 5.2 SW 28 41 15 22 1019.9 1019.7 0.0
21/02:00am 13.3 6.7 -0.3 39 5.6 SW 24 35 13 19 1019.9 1019.7 0.0
21/01:30am 13.5 6.9 -3.7 30 6.6 SW 22 35 12 19 1019.4 1019.2 0.0
21/01:00am 13.8 7.7 -3.5 30 6.7 SW 19 28 10 15 1019.4 1019.2 0.0
21/12:30am 12.6 8.1 -3.6 32 6.2 SW 11 13 6 7 1019.0 1018.9 0.0
21/12:00am 14.0 9.2 -2.8 31 6.6 SW 13 17 7 9 1018.9 1018.8 0.0
 
Date/Time
EST
Temp
°C
App
Temp
°C
Dew
Point
°C
Rel
Hum
%
Delta-T
°C
Wind Press
QNH
hPa
Press
MSL
hPa
Rain since
9am
mm
Dir  Spd
km/h
Gust
km/h
Spd
kts
Gust
kts
20/11:30pm 15.1 9.2 -1.9 31 6.9 SW 19 26 10 14 1019.0 1018.9 0.0
20/11:00pm 15.6 9.7 -1.0 32 6.9 SW 20 26 11 14 1018.8 1018.7 0.0
20/10:30pm 16.3 8.9 -0.8 31 7.2 SW 28 41 15 22 1018.6 1018.5 0.0
20/10:00pm 17.0 9.2 -0.7 30 7.5 SW 30 44 16 24 1018.4 1018.2 0.0
20/09:54pm 17.1 9.3 -0.6 30 7.6 SW 30 48 16 26 1018.3 1018.1 0.0
20/09:47pm 17.3 9.0 0.0 31 7.5 SW 33 48 18 26 1018.2 1018.0 0.0
20/09:30pm 17.5 12.3 3.4 39 6.6 SW 20 30 11 16 1018.0 1017.8 0.0
20/09:00pm 17.6 11.4 4.2 41 6.3 SSW 26 44 14 24 1017.7 1017.5 0.0
20/08:40pm 18.1 10.6 4.3 40 6.6 SW 33 54 18 29 1017.5 1017.3 0.0
20/08:30pm 18.5 10.6 4.3 39 6.8 SW 35 50 19 27 1017.2 1017.0 0.0
20/08:15pm 19.4 11.5 4.4 37 7.2 SW 35 56 19 30 1016.7 1016.5 0.0
20/08:00pm 19.9 11.9 3.6 34 7.8 SW 35 50 19 27 1016.3 1016.1 0.0
20/07:42pm 20.8 13.8 2.1 29 8.7 SW 28 46 15 25 1015.7 1015.5 0.0
20/07:30pm 21.4 14.1 2.2 28 9.0 SW 30 44 16 24 1015.3 1015.1 0.0
20/07:00pm 22.0 16.0 -2.7 19 10.6 SW 19 28 10 15 1014.7 1014.5 0.0
20/06:30pm 22.9 15.9 -3.4 17 11.2 SW 24 39 13 21 1014.4 1014.2 0.0
20/06:00pm 24.0 15.4 -4.2 15 11.9 SW 32 44 17 24 1014.0 1013.8 0.0
20/05:52pm 24.4 16.5 -4.8 14 12.3 SW 28 48 15 26 1014.0 1013.8 0.0
20/05:30pm 25.8 18.6 -5.7 12 13.2 WSW 24 33 13 18 1013.7 1013.5 0.0
20/05:00pm 26.4 20.0 -6.4 11 13.6 W 19 33 10 18 1013.7 1013.5 0.0
20/04:30pm 27.1 20.2 -5.9 11 13.9 WSW 22 33 12 18 1013.8 1013.6 0.0
20/04:00pm 27.0 19.2 -7.2 10 14.1 WSW 26 43 14 23 1013.8 1013.6 0.0
20/03:30pm 27.1 19.7 -7.1 10 14.1 W 24 39 13 21 1014.2 1014.0 0.0
20/03:00pm 26.7 19.3 -7.4 10 13.9 WSW 24 35 13 19 1014.5 1014.3 0.0
20/02:30pm 26.7 19.7 -7.4 10 14.0 W 22 39 12 21 1014.9 1014.7 0.0
20/02:00pm 27.4 20.8 -6.9 10 14.2 W 20 33 11 18 1015.4 1015.2 0.0
20/01:30pm 27.1 19.7 -7.1 10 14.1 WSW 24 41 13 22 1016.0 1015.8 0.0
20/01:00pm 26.4 19.9 -6.4 11 13.6 W 20 39 11 21 1016.7 1016.5 0.0
20/12:30pm 25.7 19.2 -5.8 12 13.2 SW 20 32 11 17 1017.1 1016.9 0.0
20/12:00pm 25.4 18.1 -6.0 12 13.0 SW 24 35 13 19 1017.7 1017.5 0.0
20/11:30am 25.1 18.6 -6.3 12 12.9 W 20 32 11 17 1018.5 1018.4 0.0
20/11:00am 25.1 20.1 -4.2 14 12.5 W 13 26 7 14 1018.9 1018.8 0.0
20/10:30am 24.1 19.1 -4.1 15 12.0 W 13 20 7 11 1019.6 1019.4 0.0
20/10:00am 22.8 17.2 -2.7 18 11.0 WNW 17 26 9 14 1020.0 1019.8 0.0
20/09:30am 21.5 16.7 -2.4 20 10.3 NW 13 20 7 11 1020.2 1020.0 0.0
20/09:00am 20.6 15.7 -3.1 20 9.9 WNW 13 19 7 10 1020.2 1020.0 0.0
20/08:30am 19.4 15.4 -2.2 23 9.1 NNW 9 13 5 7 1020.3 1020.1 0.0
20/08:00am 16.8 12.7 -2.8 26 7.9 NNW 9 13 5 7 1020.1 1019.9 0.0
20/07:30am 14.1 10.1 -2.3 32 6.6 NNW 9 11 5 6 1019.9 1019.7 0.0
20/07:00am 10.1 6.6 -1.6 44 4.5 N 7 9 4 5 1019.6 1019.4 0.0
20/06:30am 6.5 1.4 -2.1 54 3.2 NNE 15 20 8 11 1019.0 1018.9 0.0
20/06:00am 4.4 0.9 -2.9 59 2.6 NW 6 7 3 4 1018.5 1018.4 0.0
20/05:30am 4.2 0.1 -3.1 59 2.6 NNW 9 9 5 5 1018.3 1018.1 0.0
20/05:00am 4.6 0.9 -2.9 58 2.6 NNW 7 9 4 5 1018.3 1018.1 0.0
20/04:30am 5.5 2.4 -2.6 56 2.9 NNW 4 6 2 3 1018.2 1018.0 0.0
20/04:00am 5.7 3.4 -2.4 56 2.9 CALM 0 0 0 0 1018.2 1018.0 0.0
20/03:30am 5.8 3.1 -2.3 56 3.0 NNW 2 6 1 3 1018.2 1018.0 0.0
20/03:00am 6.1 2.6 -2.7 53 3.2 NNW 6 7 3 4 1018.3 1018.1 0.0
20/02:30am 6.6 4.3 -2.3 53 3.3 CALM 0 0 0 0 1018.5 1018.4 0.0
20/02:00am 6.6 4.3 -2.5 52 3.3 CALM 0 0 0 0 1018.8 1018.7 0.0
20/01:30am 7.2 4.9 -2.2 51 3.5 CALM 0 0 0 0 1019.1 1019.0 0.0
20/01:00am 7.3 3.9 -2.2 51 3.5 NNE 6 6 3 3 1019.6 1019.4 0.0
20/12:30am 8.4 6.1 -2.0 48 3.9 CALM 0 0 0 0 1019.9 1019.7 0.0
20/12:00am 8.8 6.6 -1.3 49 3.9 CALM 0 6 0 3 1020.2 1020.0 0.0
 
Date/Time
EST
Temp
°C
App
Temp
°C
Dew
Point
°C
Rel
Hum
%
Delta-T
°C
Wind Press
QNH
hPa
Press
MSL
hPa
Rain since
9am
mm
Dir  Spd
km/h
Gust
km/h
Spd
kts
Gust
kts
19/11:30pm 8.6 5.2 -2.3 46 4.1 S 6 7 3 4 1020.4 1020.2 0.0
19/11:00pm 9.2 6.2 -2.1 45 4.3 S 4 7 2 4 1020.4 1020.2 0.0
19/10:30pm 10.5 8.2 -2.2 41 4.9 CALM 0 0 0 0 1020.7 1020.5 0.0
19/10:00pm 10.9 8.6 -2.1 40 5.0 CALM 0 0 0 0 1020.9 1020.7 0.0
19/09:30pm 11.6 8.1 -1.5 40 5.2 S 7 7 4 4 1020.9 1020.7 0.0
19/09:00pm 12.9 9.2 -3.0 33 6.2 SSW 7 7 4 4 1021.0 1020.8 0.0
19/08:30pm 14.3 10.6 -2.6 31 6.7 SSW 7 9 4 5 1021.1 1020.9 0.0
19/08:00pm 14.9 11.2 -2.5 30 7.0 SW 7 9 4 5 1021.0 1020.8 0.0
19/07:30pm 16.2 12.5 -3.3 26 7.8 SW 7 9 4 5 1020.7 1020.5 0.0
19/07:00pm 18.5 14.8 -3.0 23 8.8 SW 7 9 4 5 1020.3 1020.1 0.0
19/06:30pm 20.5 17.0 -3.2 20 9.9 SW 6 7 3 4 1020.1 1019.9 0.0
19/06:00pm 22.8 19.3 -2.7 18 11.0 S 6 7 3 4 1019.9 1019.7 0.0
19/05:30pm 24.1 20.0 -3.3 16 11.8 S 9 11 5 6 1019.9 1019.7 0.0
19/05:00pm 25.1 21.0 -3.3 15 12.3 WSW 9 15 5 8 1019.8 1019.6 0.0
19/04:30pm 24.9 20.4 -3.5 15 12.3 SW 11 15 6 8 1019.8 1019.6 0.0
19/04:00pm 25.0 21.5 -1.7 17 11.9 WSW 7 15 4 8 1019.9 1019.7 0.0
19/03:30pm 24.9 21.0 -1.8 17 11.9 SW 9 15 5 8 1020.1 1019.9 0.0
19/03:00pm 24.5 21.0 -1.3 18 11.6 WSW 7 20 4 11 1020.5 1020.3 0.0
19/02:30pm 24.1 20.1 -2.4 17 11.6 W 9 15 5 8 1021.0 1020.8 0.0
19/02:00pm 24.0 19.5 -3.3 16 11.7 NW 11 20 6 11 1021.5 1021.3 0.0
19/01:30pm 23.2 18.4 -2.4 18 11.1 WNW 13 35 7 19 1022.1 1021.9 0.0
19/01:00pm 23.5 19.7 -0.7 20 10.9 N 9 15 5 8 1022.5 1022.3 0.0
19/12:30pm 23.2 19.1 -0.3 21 10.7 W 11 17 6 9 1023.1 1022.9 0.0
19/12:00pm 21.5 18.2 -1.1 22 9.9 E 6 9 3 5 1023.6 1023.4 0.0
19/11:30am 21.7 18.4 0.3 24 9.7 NNE 7 15 4 8 1024.2 1024.0 0.0
19/11:00am 20.9 17.3 0.7 26 9.1 N 9 15 5 8 1024.6 1024.4 0.0
19/10:30am 20.4 17.1 2.7 31 8.3 ESE 9 19 5 10 1024.8 1024.6 0.0
19/10:00am 19.3 16.4 8.0 48 5.8 NE 13 19 7 10 1025.0 1024.8 0.0

Other formats

Comma delimited format used in spreadsheet applications
http://www.bom.gov.au/fwo/IDN60801/IDN60801.94703.axf

JavaScript Object Notation format (JSON) in row-major order
http://www.bom.gov.au/fwo/IDN60801/IDN60801.94703.json

Data quality

Most of these data are generated automatically and are frequently updated. Quality checks on data are not normally performed. It is possible for incorrect values to appear. Refer to information at About Latest Weather Observations and please check the disclaimer before using these data.